EBLG/LGG METAR and TAF weather

Enter ICAO airport designator
Station Type Date Time Source
EBLG METAR 2019/04/18 20:20 UTC NOAA

EBLG 182020Z 09006KT CAVOK 17/03 Q1024 NOSIG


Station Type Date Time Source
EBLG Decoded METAR 2019/04/18 20:20 UTC NOAA

Bierset, Belgium (EBLG) 50-39N 005-27E 178M
Apr 18, 2019 - 04:20 PM EDT / 2019.04.18 2020 UTC
Wind: from the E (090 degrees) at 7 MPH (6 KT):0
Visibility: greater than 7 mile(s):0
Temperature: 62 F (17 C)
Dew Point: 37 F (3 C)
Relative Humidity: 39%
Pressure (altimeter): 30.24 in. Hg (1024 hPa)
ob: EBLG 182020Z 09006KT CAVOK 17/03 Q1024 NOSIG
cycle: 20

Station Type Date Time Source
EBLG TAF 2019/04/18 18:27 UTC NOAA

TAF EBLG 181700Z 1818/1924 08007KT CAVOK

Example: see airport list